sensor_id;sensor_type;location;lat;lon;timestamp;pressure;altitude;pressure_sealevel;temperature;humidity
39843;BME280;25514;46.764;15.406;2022-07-04T00:01:01;97215.53;;;21.34;70.81
39843;BME280;25514;46.764;15.406;2022-07-04T00:03:26;97216.53;;;21.31;71.70
39843;BME280;25514;46.764;15.406;2022-07-04T00:05:52;97210.44;;;21.27;72.41
39843;BME280;25514;46.764;15.406;2022-07-04T00:08:17;97221.00;;;21.23;72.26
39843;BME280;25514;46.764;15.406;2022-07-04T00:10:43;97202.28;;;21.18;72.28
39843;BME280;25514;46.764;15.406;2022-07-04T00:13:08;97212.13;;;21.19;71.88
39843;BME280;25514;46.764;15.406;2022-07-04T00:15:34;97202.78;;;21.22;72.10
39843;BME280;25514;46.764;15.406;2022-07-04T00:17:59;97213.38;;;21.18;73.03
39843;BME280;25514;46.764;15.406;2022-07-04T00:20:25;97218.88;;;21.12;73.97
39843;BME280;25514;46.764;15.406;2022-07-04T00:22:50;97212.50;;;21.06;74.41
39843;BME280;25514;46.764;15.406;2022-07-04T00:25:16;97220.56;;;21.04;74.12
39843;BME280;25514;46.764;15.406;2022-07-04T00:27:41;97220.34;;;21.08;72.28
39843;BME280;25514;46.764;15.406;2022-07-04T00:30:08;97226.22;;;21.15;72.41
39843;BME280;25514;46.764;15.406;2022-07-04T00:32:33;97216.06;;;21.07;75.08
39843;BME280;25514;46.764;15.406;2022-07-04T00:34:59;97215.66;;;20.93;76.84
39843;BME280;25514;46.764;15.406;2022-07-04T00:37:24;97219.78;;;20.77;76.56
39843;BME280;25514;46.764;15.406;2022-07-04T00:39:50;97218.47;;;20.73;75.92
39843;BME280;25514;46.764;15.406;2022-07-04T00:42:15;97214.38;;;20.68;74.79
39843;BME280;25514;46.764;15.406;2022-07-04T00:44:41;97202.47;;;20.68;73.19
39843;BME280;25514;46.764;15.406;2022-07-04T00:47:07;97208.81;;;20.68;72.38
39843;BME280;25514;46.764;15.406;2022-07-04T00:49:33;97200.69;;;20.64;72.17
39843;BME280;25514;46.764;15.406;2022-07-04T00:52:00;97199.34;;;20.60;72.02
39843;BME280;25514;46.764;15.406;2022-07-04T00:54:28;97189.28;;;20.62;71.71
39843;BME280;25514;46.764;15.406;2022-07-04T00:56:54;97181.09;;;20.53;74.10
39843;BME280;25514;46.764;15.406;2022-07-04T00:59:20;97179.50;;;20.46;77.87
39843;BME280;25514;46.764;15.406;2022-07-04T01:01:46;97181.38;;;20.35;79.90
39843;BME280;25514;46.764;15.406;2022-07-04T01:04:11;97172.91;;;20.23;81.39
39843;BME280;25514;46.764;15.406;2022-07-04T01:06:37;97175.59;;;20.18;82.59
39843;BME280;25514;46.764;15.406;2022-07-04T01:09:04;97176.31;;;20.13;83.98
39843;BME280;25514;46.764;15.406;2022-07-04T01:11:29;97175.00;;;20.08;85.29
39843;BME280;25514;46.764;15.406;2022-07-04T01:13:56;97173.19;;;20.05;84.03
39843;BME280;25514;46.764;15.406;2022-07-04T01:16:21;97175.69;;;20.03;82.17
39843;BME280;25514;46.764;15.406;2022-07-04T01:18:49;97171.66;;;20.04;81.69
39843;BME280;25514;46.764;15.406;2022-07-04T01:21:17;97166.59;;;20.02;82.83
39843;BME280;25514;46.764;15.406;2022-07-04T01:23:43;97163.81;;;20.02;82.88
39843;BME280;25514;46.764;15.406;2022-07-04T01:26:09;97165.34;;;20.03;81.63
39843;BME280;25514;46.764;15.406;2022-07-04T01:28:35;97158.06;;;20.06;80.34
39843;BME280;25514;46.764;15.406;2022-07-04T01:31:00;97153.75;;;20.05;79.13
39843;BME280;25514;46.764;15.406;2022-07-04T01:33:26;97151.00;;;20.05;78.42
39843;BME280;25514;46.764;15.406;2022-07-04T01:35:52;97156.53;;;20.05;78.26
39843;BME280;25514;46.764;15.406;2022-07-04T01:38:18;97147.72;;;20.06;77.19
39843;BME280;25514;46.764;15.406;2022-07-04T01:40:43;97140.38;;;20.03;76.65
39843;BME280;25514;46.764;15.406;2022-07-04T01:43:09;97135.44;;;19.92;77.21
39843;BME280;25514;46.764;15.406;2022-07-04T01:45:35;97141.97;;;19.89;77.49
39843;BME280;25514;46.764;15.406;2022-07-04T01:50:30;97132.66;;;19.92;77.55
39843;BME280;25514;46.764;15.406;2022-07-04T01:52:55;97124.66;;;19.95;75.95
39843;BME280;25514;46.764;15.406;2022-07-04T01:55:20;97134.06;;;20.03;75.17
39843;BME280;25514;46.764;15.406;2022-07-04T01:57:46;97128.53;;;20.03;75.80
39843;BME280;25514;46.764;15.406;2022-07-04T02:00:11;97129.41;;;19.94;76.63
39843;BME280;25514;46.764;15.406;2022-07-04T02:02:55;97127.56;;;19.85;77.19
39843;BME280;25514;46.764;15.406;2022-07-04T02:05:24;97136.13;;;19.87;76.33
39843;BME280;25514;46.764;15.406;2022-07-04T02:07:50;97122.84;;;19.91;76.55
39843;BME280;25514;46.764;15.406;2022-07-04T02:10:17;97131.38;;;19.73;77.94
39843;BME280;25514;46.764;15.406;2022-07-04T02:12:42;97135.13;;;19.70;78.61
39843;BME280;25514;46.764;15.406;2022-07-04T02:15:36;97134.34;;;19.69;80.28
39843;BME280;25514;46.764;15.406;2022-07-04T02:18:03;97133.78;;;19.65;81.02
39843;BME280;25514;46.764;15.406;2022-07-04T02:20:29;97137.22;;;19.60;81.49
39843;BME280;25514;46.764;15.406;2022-07-04T02:22:55;97146.72;;;19.53;82.32
39843;BME280;25514;46.764;15.406;2022-07-04T02:25:21;97135.34;;;19.51;82.30
39843;BME280;25514;46.764;15.406;2022-07-04T02:27:47;97143.47;;;19.55;81.58
39843;BME280;25514;46.764;15.406;2022-07-04T02:30:13;97151.28;;;19.56;81.58
39843;BME280;25514;46.764;15.406;2022-07-04T02:32:39;97139.63;;;19.52;82.17
39843;BME280;25514;46.764;15.406;2022-07-04T02:35:05;97143.66;;;19.51;82.83
39843;BME280;25514;46.764;15.406;2022-07-04T02:37:32;97148.84;;;19.44;84.08
39843;BME280;25514;46.764;15.406;2022-07-04T02:39:58;97134.81;;;19.32;85.69
39843;BME280;25514;46.764;15.406;2022-07-04T02:42:23;97146.75;;;19.24;86.27
39843;BME280;25514;46.764;15.406;2022-07-04T02:44:49;97151.16;;;19.15;86.63
39843;BME280;25514;46.764;15.406;2022-07-04T02:47:15;97155.38;;;19.11;86.67
39843;BME280;25514;46.764;15.406;2022-07-04T02:49:41;97153.84;;;18.95;87.23
39843;BME280;25514;46.764;15.406;2022-07-04T02:52:07;97148.06;;;18.83;87.71
39843;BME280;25514;46.764;15.406;2022-07-04T02:54:33;97145.38;;;18.74;87.54
39843;BME280;25514;46.764;15.406;2022-07-04T02:56:58;97153.69;;;18.74;86.58
39843;BME280;25514;46.764;15.406;2022-07-04T02:59:24;97143.19;;;18.78;84.48
39843;BME280;25514;46.764;15.406;2022-07-04T03:01:49;97124.81;;;18.90;82.47
39843;BME280;25514;46.764;15.406;2022-07-04T03:04:16;97132.81;;;19.03;80.99
39843;BME280;25514;46.764;15.406;2022-07-04T03:06:41;97132.72;;;19.12;80.01
39843;BME280;25514;46.764;15.406;2022-07-04T03:09:08;97135.88;;;19.20;79.91
39843;BME280;25514;46.764;15.406;2022-07-04T03:11:34;97139.88;;;19.04;81.30
39843;BME280;25514;46.764;15.406;2022-07-04T03:13:59;97130.81;;;18.89;82.01
39843;BME280;25514;46.764;15.406;2022-07-04T03:16:24;97118.75;;;18.77;82.61
39843;BME280;25514;46.764;15.406;2022-07-04T03:18:50;97124.56;;;18.64;83.69
39843;BME280;25514;46.764;15.406;2022-07-04T03:21:16;97117.50;;;18.63;83.01
39843;BME280;25514;46.764;15.406;2022-07-04T03:23:42;97109.47;;;18.65;82.40
39843;BME280;25514;46.764;15.406;2022-07-04T03:26:07;97112.53;;;18.67;82.81
39843;BME280;25514;46.764;15.406;2022-07-04T03:28:33;97109.09;;;18.72;82.91
39843;BME280;25514;46.764;15.406;2022-07-04T03:30:59;97113.09;;;18.71;85.03
39843;BME280;25514;46.764;15.406;2022-07-04T03:33:25;97111.69;;;18.76;84.83
39843;BME280;25514;46.764;15.406;2022-07-04T03:35:51;97116.47;;;18.75;84.08
39843;BME280;25514;46.764;15.406;2022-07-04T03:38:16;97117.53;;;18.78;83.07
39843;BME280;25514;46.764;15.406;2022-07-04T03:40:41;97118.88;;;18.82;82.58
39843;BME280;25514;46.764;15.406;2022-07-04T03:43:07;97126.53;;;18.88;82.35
39843;BME280;25514;46.764;15.406;2022-07-04T03:45:33;97121.56;;;18.92;81.44
39843;BME280;25514;46.764;15.406;2022-07-04T03:47:58;97124.41;;;18.97;80.83
39843;BME280;25514;46.764;15.406;2022-07-04T03:50:24;97128.78;;;19.04;79.91
39843;BME280;25514;46.764;15.406;2022-07-04T03:52:50;97126.88;;;19.10;79.79
39843;BME280;25514;46.764;15.406;2022-07-04T03:55:16;97125.44;;;19.15;79.88
39843;BME280;25514;46.764;15.406;2022-07-04T03:57:41;97123.75;;;19.17;80.05
39843;BME280;25514;46.764;15.406;2022-07-04T04:00:07;97133.97;;;19.11;80.41
39843;BME280;25514;46.764;15.406;2022-07-04T04:02:35;97131.66;;;19.10;79.23
39843;BME280;25514;46.764;15.406;2022-07-04T04:05:00;97139.03;;;19.13;78.37
39843;BME280;25514;46.764;15.406;2022-07-04T04:07:44;97133.75;;;19.15;77.71
39843;BME280;25514;46.764;15.406;2022-07-04T04:10:10;97133.88;;;19.20;78.29
39843;BME280;25514;46.764;15.406;2022-07-04T04:12:35;97138.72;;;19.26;77.68
39843;BME280;25514;46.764;15.406;2022-07-04T04:15:01;97136.25;;;19.28;77.54
39843;BME280;25514;46.764;15.406;2022-07-04T04:17:28;97139.19;;;19.24;77.13
39843;BME280;25514;46.764;15.406;2022-07-04T04:19:53;97135.09;;;19.34;76.36
39843;BME280;25514;46.764;15.406;2022-07-04T04:22:19;97133.66;;;19.39;75.74
39843;BME280;25514;46.764;15.406;2022-07-04T04:24:44;97138.22;;;19.42;76.32
39843;BME280;25514;46.764;15.406;2022-07-04T04:27:09;97141.69;;;19.37;76.30
39843;BME280;25514;46.764;15.406;2022-07-04T04:29:35;97142.72;;;19.39;76.51
39843;BME280;25514;46.764;15.406;2022-07-04T04:32:01;97145.59;;;19.45;76.07
39843;BME280;25514;46.764;15.406;2022-07-04T04:34:27;97148.78;;;19.58;75.45
39843;BME280;25514;46.764;15.406;2022-07-04T04:36:52;97151.88;;;19.61;75.94
39843;BME280;25514;46.764;15.406;2022-07-04T04:39:17;97147.28;;;19.57;75.70
39843;BME280;25514;46.764;15.406;2022-07-04T04:41:43;97153.38;;;19.62;76.18
39843;BME280;25514;46.764;15.406;2022-07-04T04:44:08;97150.53;;;19.56;76.77
39843;BME280;25514;46.764;15.406;2022-07-04T04:46:34;97153.31;;;19.56;76.83
39843;BME280;25514;46.764;15.406;2022-07-04T04:48:59;97146.22;;;19.55;76.56
39843;BME280;25514;46.764;15.406;2022-07-04T04:51:25;97159.88;;;19.58;77.66
39843;BME280;25514;46.764;15.406;2022-07-04T04:53:50;97160.47;;;19.63;76.70
39843;BME280;25514;46.764;15.406;2022-07-04T04:56:16;97161.03;;;19.67;76.20
39843;BME280;25514;46.764;15.406;2022-07-04T04:58:41;97159.50;;;19.66;76.35
39843;BME280;25514;46.764;15.406;2022-07-04T05:01:07;97169.06;;;19.65;76.70
39843;BME280;25514;46.764;15.406;2022-07-04T05:03:32;97159.88;;;19.58;77.76
39843;BME280;25514;46.764;15.406;2022-07-04T05:05:58;97158.38;;;19.43;77.73
39843;BME280;25514;46.764;15.406;2022-07-04T05:08:23;97156.69;;;19.45;76.32
39843;BME280;25514;46.764;15.406;2022-07-04T05:10:52;97153.09;;;19.60;76.74
39843;BME280;25514;46.764;15.406;2022-07-04T05:13:18;97156.03;;;19.71;77.39
39843;BME280;25514;46.764;15.406;2022-07-04T05:15:45;97161.22;;;19.78;78.17
39843;BME280;25514;46.764;15.406;2022-07-04T05:18:12;97168.84;;;19.83;78.48
39843;BME280;25514;46.764;15.406;2022-07-04T05:20:37;97165.88;;;19.87;80.09
39843;BME280;25514;46.764;15.406;2022-07-04T05:23:05;97163.66;;;19.91;80.85
39843;BME280;25514;46.764;15.406;2022-07-04T05:25:30;97170.06;;;19.97;80.11
39843;BME280;25514;46.764;15.406;2022-07-04T05:27:56;97166.31;;;20.00;77.86
39843;BME280;25514;46.764;15.406;2022-07-04T05:30:21;97170.69;;;20.07;78.09
39843;BME280;25514;46.764;15.406;2022-07-04T05:32:47;97172.91;;;20.03;78.17
39843;BME280;25514;46.764;15.406;2022-07-04T05:35:12;97168.19;;;20.09;77.90
39843;BME280;25514;46.764;15.406;2022-07-04T05:37:38;97169.31;;;20.17;77.95
39843;BME280;25514;46.764;15.406;2022-07-04T05:40:04;97168.13;;;20.24;77.56
39843;BME280;25514;46.764;15.406;2022-07-04T05:42:30;97173.06;;;20.35;76.80
39843;BME280;25514;46.764;15.406;2022-07-04T05:44:55;97166.94;;;20.51;78.40
39843;BME280;25514;46.764;15.406;2022-07-04T05:47:21;97161.13;;;20.70;80.09
39843;BME280;25514;46.764;15.406;2022-07-04T05:49:49;97176.22;;;20.89;80.19
39843;BME280;25514;46.764;15.406;2022-07-04T05:52:15;97176.94;;;21.10;81.01
39843;BME280;25514;46.764;15.406;2022-07-04T05:54:40;97184.44;;;21.30;80.83
39843;BME280;25514;46.764;15.406;2022-07-04T05:57:06;97177.28;;;21.50;80.15
39843;BME280;25514;46.764;15.406;2022-07-04T05:59:31;97172.88;;;21.69;80.56
39843;BME280;25514;46.764;15.406;2022-07-04T06:01:57;97181.09;;;21.90;80.06
39843;BME280;25514;46.764;15.406;2022-07-04T06:04:22;97170.53;;;22.00;78.67
39843;BME280;25514;46.764;15.406;2022-07-04T06:06:48;97170.38;;;22.20;79.27
39843;BME280;25514;46.764;15.406;2022-07-04T06:09:13;97176.81;;;22.32;77.77
39843;BME280;25514;46.764;15.406;2022-07-04T06:11:39;97176.88;;;22.49;77.89
39843;BME280;25514;46.764;15.406;2022-07-04T06:14:04;97186.50;;;22.54;77.65
39843;BME280;25514;46.764;15.406;2022-07-04T06:16:30;97183.47;;;22.57;76.76
39843;BME280;25514;46.764;15.406;2022-07-04T06:18:55;97190.09;;;22.60;74.94
39843;BME280;25514;46.764;15.406;2022-07-04T06:21:21;97184.00;;;22.67;74.37
39843;BME280;25514;46.764;15.406;2022-07-04T06:23:46;97187.41;;;22.94;74.15
39843;BME280;25514;46.764;15.406;2022-07-04T06:26:12;97194.31;;;23.27;73.29
39843;BME280;25514;46.764;15.406;2022-07-04T06:28:37;97199.91;;;23.61;72.00
39843;BME280;25514;46.764;15.406;2022-07-04T06:31:03;97192.78;;;23.71;70.11
39843;BME280;25514;46.764;15.406;2022-07-04T06:33:28;97191.25;;;23.81;70.01
39843;BME280;25514;46.764;15.406;2022-07-04T06:35:54;97207.75;;;23.96;69.35
39843;BME280;25514;46.764;15.406;2022-07-04T06:38:25;97198.84;;;24.09;68.35
39843;BME280;25514;46.764;15.406;2022-07-04T06:40:55;97192.75;;;24.05;68.57
39843;BME280;25514;46.764;15.406;2022-07-04T06:43:20;97189.22;;;23.99;67.65
39843;BME280;25514;46.764;15.406;2022-07-04T06:45:46;97192.25;;;24.01;68.45
39843;BME280;25514;46.764;15.406;2022-07-04T06:48:12;97183.84;;;24.23;69.56
39843;BME280;25514;46.764;15.406;2022-07-04T06:50:37;97189.81;;;24.50;68.93
39843;BME280;25514;46.764;15.406;2022-07-04T06:53:04;97185.28;;;24.41;68.08
39843;BME280;25514;46.764;15.406;2022-07-04T06:55:31;97178.94;;;24.41;68.63
39843;BME280;25514;46.764;15.406;2022-07-04T06:57:57;97181.69;;;24.58;67.63
39843;BME280;25514;46.764;15.406;2022-07-04T07:00:23;97185.22;;;24.64;67.61
39843;BME280;25514;46.764;15.406;2022-07-04T07:02:49;97186.41;;;24.80;66.65
39843;BME280;25514;46.764;15.406;2022-07-04T07:05:15;97178.75;;;24.86;66.13
39843;BME280;25514;46.764;15.406;2022-07-04T07:07:40;97174.63;;;24.93;66.17
39843;BME280;25514;46.764;15.406;2022-07-04T07:10:06;97179.16;;;25.02;66.08
39843;BME280;25514;46.764;15.406;2022-07-04T07:12:33;97169.75;;;25.05;65.06
39843;BME280;25514;46.764;15.406;2022-07-04T07:14:59;97156.63;;;24.88;64.84
39843;BME280;25514;46.764;15.406;2022-07-04T07:17:26;97160.22;;;24.83;64.80
39843;BME280;25514;46.764;15.406;2022-07-04T07:19:51;97164.69;;;24.98;63.43
39843;BME280;25514;46.764;15.406;2022-07-04T07:22:17;97169.66;;;25.16;65.28
39843;BME280;25514;46.764;15.406;2022-07-04T07:24:43;97166.75;;;25.39;67.28
39843;BME280;25514;46.764;15.406;2022-07-04T07:27:09;97156.16;;;25.56;68.06
39843;BME280;25514;46.764;15.406;2022-07-04T07:29:35;97158.50;;;25.77;67.85
39843;BME280;25514;46.764;15.406;2022-07-04T07:32:01;97159.81;;;26.00;68.22
39843;BME280;25514;46.764;15.406;2022-07-04T07:34:27;97151.44;;;26.63;67.33
39843;BME280;25514;46.764;15.406;2022-07-04T07:36:53;97150.72;;;26.82;62.95
39843;BME280;25514;46.764;15.406;2022-07-04T07:39:19;97160.25;;;26.92;62.42
39843;BME280;25514;46.764;15.406;2022-07-04T07:41:45;97164.28;;;27.29;61.22
39843;BME280;25514;46.764;15.406;2022-07-04T07:44:10;97174.13;;;27.68;59.78
39843;BME280;25514;46.764;15.406;2022-07-04T07:46:36;97168.69;;;28.03;59.75
39843;BME280;25514;46.764;15.406;2022-07-04T07:49:02;97158.75;;;28.15;58.48
39843;BME280;25514;46.764;15.406;2022-07-04T07:51:28;97170.84;;;28.10;57.35
39843;BME280;25514;46.764;15.406;2022-07-04T07:53:54;97166.63;;;28.03;57.74
39843;BME280;25514;46.764;15.406;2022-07-04T07:56:20;97161.25;;;28.05;56.24
39843;BME280;25514;46.764;15.406;2022-07-04T07:58:45;97157.56;;;28.10;55.97
39843;BME280;25514;46.764;15.406;2022-07-04T08:01:11;97165.34;;;28.18;55.32
39843;BME280;25514;46.764;15.406;2022-07-04T08:03:36;97165.00;;;28.35;53.84
39843;BME280;25514;46.764;15.406;2022-07-04T08:06:20;97159.28;;;28.27;52.23
39843;BME280;25514;46.764;15.406;2022-07-04T08:08:46;97158.75;;;28.28;52.92
39843;BME280;25514;46.764;15.406;2022-07-04T08:11:12;97153.88;;;28.29;53.04
39843;BME280;25514;46.764;15.406;2022-07-04T08:13:38;97162.06;;;28.54;53.41
39843;BME280;25514;46.764;15.406;2022-07-04T08:16:05;97154.44;;;28.89;51.88
39843;BME280;25514;46.764;15.406;2022-07-04T08:18:31;97166.28;;;29.08;51.42
39843;BME280;25514;46.764;15.406;2022-07-04T08:20:57;97172.47;;;29.28;51.27
39843;BME280;25514;46.764;15.406;2022-07-04T08:23:23;97173.78;;;29.69;53.56
39843;BME280;25514;46.764;15.406;2022-07-04T08:25:48;97181.84;;;30.15;51.19
39843;BME280;25514;46.764;15.406;2022-07-04T08:28:14;97187.94;;;30.26;48.89
39843;BME280;25514;46.764;15.406;2022-07-04T08:30:39;97188.31;;;30.30;49.25
39843;BME280;25514;46.764;15.406;2022-07-04T08:33:05;97185.31;;;30.28;49.76
39843;BME280;25514;46.764;15.406;2022-07-04T08:35:30;97193.84;;;30.15;49.55
39843;BME280;25514;46.764;15.406;2022-07-04T08:37:56;97197.28;;;29.92;49.85
39843;BME280;25514;46.764;15.406;2022-07-04T08:40:23;97191.47;;;29.48;49.54
39843;BME280;25514;46.764;15.406;2022-07-04T08:42:49;97196.59;;;29.57;49.57
39843;BME280;25514;46.764;15.406;2022-07-04T08:45:16;97199.69;;;29.88;50.12
39843;BME280;25514;46.764;15.406;2022-07-04T08:47:43;97198.00;;;30.14;49.66
39843;BME280;25514;46.764;15.406;2022-07-04T08:50:12;97193.66;;;29.84;48.30
39843;BME280;25514;46.764;15.406;2022-07-04T08:52:43;97188.69;;;29.35;49.65
39843;BME280;25514;46.764;15.406;2022-07-04T08:55:12;97183.00;;;29.27;50.70
39843;BME280;25514;46.764;15.406;2022-07-04T08:57:58;97190.63;;;29.05;50.87
39843;BME280;25514;46.764;15.406;2022-07-04T09:00:43;97200.44;;;29.12;51.72
39843;BME280;25514;46.764;15.406;2022-07-04T09:03:09;97224.13;;;29.17;52.31
39843;BME280;25514;46.764;15.406;2022-07-04T09:05:35;97226.47;;;28.92;52.35
39843;BME280;25514;46.764;15.406;2022-07-04T09:08:02;97223.25;;;28.47;54.22
39843;BME280;25514;46.764;15.406;2022-07-04T09:10:28;97234.28;;;28.19;54.41
39843;BME280;25514;46.764;15.406;2022-07-04T09:12:54;97230.44;;;27.89;54.33
39843;BME280;25514;46.764;15.406;2022-07-04T09:15:19;97233.75;;;27.74;55.15
39843;BME280;25514;46.764;15.406;2022-07-04T09:17:45;97226.78;;;27.62;55.28
39843;BME280;25514;46.764;15.406;2022-07-04T09:20:15;97222.63;;;27.36;55.31
39843;BME280;25514;46.764;15.406;2022-07-04T09:22:41;97226.78;;;27.11;56.26
39843;BME280;25514;46.764;15.406;2022-07-04T09:25:07;97213.97;;;26.96;56.87
39843;BME280;25514;46.764;15.406;2022-07-04T09:27:35;97209.06;;;27.02;56.78
39843;BME280;25514;46.764;15.406;2022-07-04T09:30:02;97215.09;;;27.06;57.37
39843;BME280;25514;46.764;15.406;2022-07-04T09:32:38;97216.38;;;27.24;58.21
39843;BME280;25514;46.764;15.406;2022-07-04T09:35:06;97222.44;;;27.48;58.11
39843;BME280;25514;46.764;15.406;2022-07-04T09:37:37;97222.72;;;27.76;59.72
39843;BME280;25514;46.764;15.406;2022-07-04T09:40:04;97214.25;;;27.95;59.98
39843;BME280;25514;46.764;15.406;2022-07-04T09:42:41;97213.94;;;27.99;58.13
39843;BME280;25514;46.764;15.406;2022-07-04T09:45:11;97214.81;;;28.07;59.26
39843;BME280;25514;46.764;15.406;2022-07-04T09:47:38;97207.38;;;28.10;57.89
39843;BME280;25514;46.764;15.406;2022-07-04T09:50:09;97201.38;;;27.87;57.34
39843;BME280;25514;46.764;15.406;2022-07-04T09:52:49;97206.75;;;27.71;60.17
39843;BME280;25514;46.764;15.406;2022-07-04T09:55:27;97212.16;;;27.69;61.25
39843;BME280;25514;46.764;15.406;2022-07-04T09:57:58;97212.09;;;27.56;59.55
39843;BME280;25514;46.764;15.406;2022-07-04T10:00:29;97220.56;;;27.37;59.30
39843;BME280;25514;46.764;15.406;2022-07-04T10:02:56;97216.56;;;27.13;59.71
39843;BME280;25514;46.764;15.406;2022-07-04T10:05:27;97221.34;;;26.99;60.44
39843;BME280;25514;46.764;15.406;2022-07-04T10:07:54;97216.94;;;26.85;60.53
39843;BME280;25514;46.764;15.406;2022-07-04T10:10:28;97214.56;;;26.89;60.51
39843;BME280;25514;46.764;15.406;2022-07-04T10:12:57;97221.72;;;26.90;61.03
39843;BME280;25514;46.764;15.406;2022-07-04T10:15:23;97214.88;;;26.85;61.27
39843;BME280;25514;46.764;15.406;2022-07-04T10:17:49;97216.94;;;26.85;61.57
39843;BME280;25514;46.764;15.406;2022-07-04T10:20:14;97215.63;;;27.05;60.94
39843;BME280;25514;46.764;15.406;2022-07-04T10:22:40;97210.22;;;27.26;61.21
39843;BME280;25514;46.764;15.406;2022-07-04T10:25:06;97218.88;;;27.28;61.84
39843;BME280;25514;46.764;15.406;2022-07-04T10:27:32;97220.91;;;27.47;61.91
39843;BME280;25514;46.764;15.406;2022-07-04T10:29:59;97231.78;;;27.69;62.15
39843;BME280;25514;46.764;15.406;2022-07-04T10:32:27;97234.75;;;27.90;60.55
39843;BME280;25514;46.764;15.406;2022-07-04T10:34:53;97229.72;;;28.02;60.41
39843;BME280;25514;46.764;15.406;2022-07-04T10:37:19;97229.06;;;28.09;59.46
39843;BME280;25514;46.764;15.406;2022-07-04T10:39:45;97230.59;;;28.10;57.00
39843;BME280;25514;46.764;15.406;2022-07-04T10:42:22;97228.88;;;28.07;58.49
39843;BME280;25514;46.764;15.406;2022-07-04T10:44:49;97233.25;;;27.89;57.79
39843;BME280;25514;46.764;15.406;2022-07-04T10:47:23;97230.94;;;27.74;58.56
39843;BME280;25514;46.764;15.406;2022-07-04T10:49:50;97232.63;;;27.64;58.93
39843;BME280;25514;46.764;15.406;2022-07-04T10:52:16;97233.06;;;27.68;59.39
39843;BME280;25514;46.764;15.406;2022-07-04T10:54:42;97232.53;;;27.70;59.69
39843;BME280;25514;46.764;15.406;2022-07-04T10:57:22;97235.44;;;27.64;58.18
39843;BME280;25514;46.764;15.406;2022-07-04T11:05:02;97215.22;;;27.85;56.90
39843;BME280;25514;46.764;15.406;2022-07-04T11:18:01;97208.34;;;29.69;51.11
39843;BME280;25514;46.764;15.406;2022-07-04T11:20:28;97202.31;;;30.15;49.11
39843;BME280;25514;46.764;15.406;2022-07-04T11:23:08;97203.63;;;30.43;48.54
39843;BME280;25514;46.764;15.406;2022-07-04T11:25:34;97211.84;;;30.70;47.77
39843;BME280;25514;46.764;15.406;2022-07-04T11:28:29;97199.31;;;30.86;48.17
39843;BME280;25514;46.764;15.406;2022-07-04T11:30:59;97196.63;;;31.17;50.42
39843;BME280;25514;46.764;15.406;2022-07-04T11:33:28;97191.41;;;31.52;48.35
39843;BME280;25514;46.764;15.406;2022-07-04T11:36:13;97183.69;;;31.76;43.57
39843;BME280;25514;46.764;15.406;2022-07-04T11:38:54;97180.88;;;31.83;45.07
39843;BME280;25514;46.764;15.406;2022-07-04T11:41:24;97169.56;;;31.83;44.24
39843;BME280;25514;46.764;15.406;2022-07-04T11:44:11;97171.47;;;31.81;43.88
39843;BME280;25514;46.764;15.406;2022-07-04T11:47:21;97168.66;;;31.73;43.19
39843;BME280;25514;46.764;15.406;2022-07-04T11:49:51;97170.34;;;31.68;43.55
39843;BME280;25514;46.764;15.406;2022-07-04T11:52:20;97168.44;;;31.63;43.35
39843;BME280;25514;46.764;15.406;2022-07-04T11:54:47;97165.03;;;31.88;43.61
39843;BME280;25514;46.764;15.406;2022-07-04T11:57:15;97157.88;;;32.02;43.49
39843;BME280;25514;46.764;15.406;2022-07-04T11:59:42;97162.38;;;32.21;45.07
39843;BME280;25514;46.764;15.406;2022-07-04T12:02:15;97153.78;;;32.59;43.52
39843;BME280;25514;46.764;15.406;2022-07-04T12:04:42;97155.03;;;32.74;44.62
39843;BME280;25514;46.764;15.406;2022-07-04T12:07:13;97159.53;;;32.85;42.77
39843;BME280;25514;46.764;15.406;2022-07-04T12:09:40;97156.00;;;33.09;44.16
39843;BME280;25514;46.764;15.406;2022-07-04T12:12:06;97152.28;;;32.99;43.74
39843;BME280;25514;46.764;15.406;2022-07-04T12:14:32;97147.75;;;33.04;44.77
39843;BME280;25514;46.764;15.406;2022-07-04T12:17:10;97141.00;;;32.91;45.63
39843;BME280;25514;46.764;15.406;2022-07-04T12:19:36;97142.50;;;32.92;44.17
39843;BME280;25514;46.764;15.406;2022-07-04T12:22:02;97137.78;;;32.95;43.71
39843;BME280;25514;46.764;15.406;2022-07-04T12:24:28;97128.59;;;32.87;42.95
39843;BME280;25514;46.764;15.406;2022-07-04T12:26:54;97131.72;;;32.99;44.40
39843;BME280;25514;46.764;15.406;2022-07-04T12:29:23;97130.59;;;33.27;46.03
39843;BME280;25514;46.764;15.406;2022-07-04T12:31:52;97127.31;;;33.38;43.77
39843;BME280;25514;46.764;15.406;2022-07-04T12:34:19;97120.38;;;33.57;43.67
39843;BME280;25514;46.764;15.406;2022-07-04T12:36:52;97120.13;;;33.62;42.28
39843;BME280;25514;46.764;15.406;2022-07-04T12:39:32;97120.94;;;33.80;40.81
39843;BME280;25514;46.764;15.406;2022-07-04T12:42:10;97113.69;;;33.87;41.55
39843;BME280;25514;46.764;15.406;2022-07-04T12:44:36;97116.59;;;33.79;39.62
39843;BME280;25514;46.764;15.406;2022-07-04T12:47:03;97112.47;;;33.30;40.19
39843;BME280;25514;46.764;15.406;2022-07-04T12:49:29;97113.13;;;33.13;41.90
39843;BME280;25514;46.764;15.406;2022-07-04T12:52:07;97112.72;;;33.17;44.01
39843;BME280;25514;46.764;15.406;2022-07-04T12:54:32;97110.63;;;33.17;44.16
39843;BME280;25514;46.764;15.406;2022-07-04T12:57:12;97099.13;;;33.23;44.39
39843;BME280;25514;46.764;15.406;2022-07-04T12:59:39;97099.28;;;33.25;42.93
39843;BME280;25514;46.764;15.406;2022-07-04T13:02:06;97094.31;;;33.33;43.07
39843;BME280;25514;46.764;15.406;2022-07-04T13:04:32;97096.03;;;33.54;43.76
39843;BME280;25514;46.764;15.406;2022-07-04T13:07:19;97093.22;;;33.54;41.95
39843;BME280;25514;46.764;15.406;2022-07-04T13:09:45;97090.16;;;33.34;40.88